createdAt,value
2017-03-22T00:01:04.777Z,0
2017-03-22T00:02:12.871Z,0
2017-03-22T00:03:21.009Z,0
2017-03-22T00:04:29.045Z,0
2017-03-22T00:05:37.129Z,0
2017-03-22T00:06:45.222Z,0
2017-03-22T00:07:53.302Z,0
2017-03-22T00:09:01.387Z,0
2017-03-22T00:10:09.480Z,0
2017-03-22T00:11:17.564Z,0
2017-03-22T00:12:25.650Z,0
2017-03-22T00:13:33.744Z,0
2017-03-22T00:14:41.830Z,0
2017-03-22T00:15:49.920Z,0
2017-03-22T00:16:58.002Z,0
2017-03-22T00:18:06.098Z,0
2017-03-22T00:19:14.184Z,0
2017-03-22T00:20:22.361Z,0
2017-03-22T00:21:30.354Z,0
2017-03-22T00:22:38.442Z,0
2017-03-22T00:23:46.529Z,0
2017-03-22T00:24:54.621Z,0
2017-03-22T00:26:02.705Z,0
2017-03-22T00:27:10.796Z,0
2017-03-22T00:28:18.878Z,0
2017-03-22T00:29:26.972Z,0
2017-03-22T00:30:35.056Z,0
2017-03-22T00:31:43.141Z,0
2017-03-22T00:32:51.231Z,0
2017-03-22T00:33:59.321Z,0
2017-03-22T00:35:07.403Z,0
2017-03-22T00:36:15.778Z,0
2017-03-22T00:37:23.580Z,0
2017-03-22T00:38:31.668Z,0
2017-03-22T00:39:39.757Z,0
2017-03-22T00:40:47.840Z,0
2017-03-22T00:41:55.947Z,0
2017-03-22T00:43:04.016Z,0
2017-03-22T00:44:12.101Z,0
2017-03-22T00:45:20.189Z,0
2017-03-22T00:46:28.272Z,0
2017-03-22T00:47:36.360Z,0
2017-03-22T00:48:44.453Z,0
2017-03-22T00:49:52.538Z,0
2017-03-22T00:51:00.626Z,0
2017-03-22T00:52:08.711Z,0
2017-03-22T00:53:16.800Z,0
2017-03-22T00:54:24.883Z,0
2017-03-22T00:55:32.966Z,0
2017-03-22T00:56:41.057Z,0
2017-03-22T00:57:49.149Z,0
2017-03-22T00:58:57.230Z,0
2017-03-22T01:00:05.318Z,0
2017-03-22T01:01:13.411Z,0
2017-03-22T01:02:21.498Z,0
2017-03-22T01:03:29.580Z,0
2017-03-22T01:04:37.671Z,0
2017-03-22T01:05:45.758Z,0
2017-03-22T01:06:53.842Z,0
2017-03-22T01:08:01.925Z,0
2017-03-22T01:09:10.018Z,0
2017-03-22T01:10:18.102Z,0
2017-03-22T01:11:26.190Z,0
2017-03-22T01:12:34.278Z,0
2017-03-22T01:13:42.367Z,0
2017-03-22T01:14:50.452Z,0
2017-03-22T01:15:58.540Z,0
2017-03-22T01:17:06.629Z,0
2017-03-22T01:18:14.716Z,0
2017-03-22T01:19:22.798Z,0
2017-03-22T01:20:30.890Z,0
2017-03-22T01:21:38.976Z,0
2017-03-22T01:22:47.059Z,0
2017-03-22T01:23:55.148Z,0
2017-03-22T01:25:03.240Z,0
2017-03-22T01:26:11.328Z,0
2017-03-22T01:27:19.408Z,0
2017-03-22T01:28:27.507Z,0
2017-03-22T01:29:35.588Z,0
2017-03-22T01:30:43.674Z,0
2017-03-22T01:31:51.760Z,0
2017-03-22T01:32:59.854Z,0
2017-03-22T01:34:07.941Z,0
2017-03-22T01:35:16.026Z,0
2017-03-22T01:36:24.123Z,0
2017-03-22T01:37:32.217Z,0
2017-03-22T01:38:40.296Z,0
2017-03-22T01:39:48.388Z,0
2017-03-22T01:40:56.482Z,0
2017-03-22T01:42:04.566Z,0
2017-03-22T01:43:12.653Z,0
2017-03-22T01:44:20.741Z,0
2017-03-22T01:45:28.829Z,0
2017-03-22T01:46:36.915Z,0
2017-03-22T01:47:45.004Z,0
2017-03-22T01:48:53.095Z,0
2017-03-22T01:50:01.191Z,0
2017-03-22T01:51:09.275Z,0
2017-03-22T01:52:17.364Z,0
2017-03-22T01:53:25.453Z,0
2017-03-22T01:54:33.546Z,0
2017-03-22T01:55:41.634Z,0
2017-03-22T01:56:49.720Z,0
2017-03-22T01:57:57.804Z,0
2017-03-22T01:59:05.888Z,0
2017-03-22T02:00:13.980Z,0
2017-03-22T02:01:22.066Z,0
2017-03-22T02:02:30.152Z,0
2017-03-22T02:03:38.244Z,0
2017-03-22T02:04:46.327Z,0
2017-03-22T02:05:54.418Z,0
2017-03-22T02:07:02.498Z,0
2017-03-22T02:08:10.592Z,0
2017-03-22T02:09:18.687Z,0
2017-03-22T02:10:26.763Z,0
2017-03-22T02:11:34.856Z,0
2017-03-22T02:12:42.942Z,0
2017-03-22T02:13:51.028Z,0
2017-03-22T02:14:59.114Z,0
2017-03-22T02:16:07.204Z,0
2017-03-22T02:17:15.291Z,0
2017-03-22T02:18:23.375Z,0
2017-03-22T02:19:31.467Z,0
2017-03-22T02:20:39.553Z,0
2017-03-22T02:21:47.636Z,0
2017-03-22T02:22:55.724Z,0
2017-03-22T02:24:03.815Z,0
2017-03-22T02:25:11.899Z,0
2017-03-22T02:26:19.982Z,0
2017-03-22T02:27:28.072Z,0
2017-03-22T02:28:36.157Z,0
2017-03-22T02:29:44.247Z,0
2017-03-22T02:30:52.328Z,0
2017-03-22T02:32:00.445Z,0
2017-03-22T02:33:08.508Z,0
2017-03-22T02:34:16.591Z,0
2017-03-22T02:35:24.688Z,0
2017-03-22T02:36:32.768Z,0
2017-03-22T02:37:40.855Z,0
2017-03-22T02:38:48.944Z,0
2017-03-22T02:39:57.034Z,0
2017-03-22T02:41:05.122Z,0
2017-03-22T02:42:13.206Z,0
2017-03-22T02:43:21.299Z,0
2017-03-22T02:44:29.384Z,0
2017-03-22T02:45:37.470Z,0
2017-03-22T02:46:45.560Z,0
2017-03-22T02:47:53.648Z,0
2017-03-22T02:49:01.803Z,0
2017-03-22T02:50:09.815Z,0
2017-03-22T02:51:17.902Z,0
2017-03-22T02:52:25.989Z,0
2017-03-22T02:53:34.077Z,0
2017-03-22T02:54:42.164Z,0
2017-03-22T02:55:50.250Z,0
2017-03-22T02:56:58.336Z,0
2017-03-22T02:58:06.419Z,0
2017-03-22T02:59:14.512Z,0
2017-03-22T03:00:22.601Z,0
2017-03-22T03:01:30.684Z,0
2017-03-22T03:02:38.776Z,0
2017-03-22T03:03:46.868Z,0
2017-03-22T03:04:54.955Z,0
2017-03-22T03:06:03.111Z,0
2017-03-22T03:07:11.130Z,0
2017-03-22T03:08:19.216Z,0
2017-03-22T03:09:27.307Z,0
2017-03-22T03:10:35.391Z,0
2017-03-22T03:11:43.480Z,0
2017-03-22T03:12:51.582Z,0
2017-03-22T03:13:59.664Z,0
2017-03-22T03:15:07.755Z,0
2017-03-22T03:16:15.839Z,0
2017-03-22T03:17:23.927Z,0
2017-03-22T03:18:32.011Z,0
2017-03-22T03:19:40.098Z,0
2017-03-22T03:20:48.181Z,0
2017-03-22T03:21:56.268Z,0
2017-03-22T03:23:04.359Z,0
2017-03-22T03:24:12.446Z,0
2017-03-22T03:25:20.535Z,0
2017-03-22T03:26:28.618Z,0
2017-03-22T03:27:36.706Z,0
2017-03-22T03:28:44.791Z,0
2017-03-22T03:29:52.873Z,0
2017-03-22T03:31:00.961Z,0
2017-03-22T03:32:09.048Z,0
2017-03-22T03:33:17.132Z,0
2017-03-22T03:34:25.225Z,0
2017-03-22T03:35:33.306Z,0
2017-03-22T03:36:41.390Z,0
2017-03-22T03:37:49.475Z,0
2017-03-22T03:38:57.566Z,0
2017-03-22T03:40:05.657Z,0
2017-03-22T03:41:13.743Z,0
2017-03-22T03:42:21.835Z,0
2017-03-22T03:43:29.918Z,0
2017-03-22T03:44:38.001Z,0
2017-03-22T03:45:46.088Z,0
2017-03-22T03:46:54.177Z,0
2017-03-22T03:48:02.264Z,0
2017-03-22T03:49:10.348Z,0
2017-03-22T03:50:18.442Z,0
2017-03-22T03:51:26.526Z,0
2017-03-22T03:52:34.622Z,0
2017-03-22T03:53:42.709Z,0
2017-03-22T03:54:50.794Z,0
2017-03-22T03:55:58.880Z,0
2017-03-22T03:57:06.962Z,0
2017-03-22T03:58:15.056Z,0
2017-03-22T03:59:23.144Z,0
2017-03-22T04:00:31.226Z,0
2017-03-22T04:01:39.314Z,0
2017-03-22T04:02:47.402Z,0
2017-03-22T04:03:55.488Z,0
2017-03-22T04:05:03.572Z,0
2017-03-22T04:06:11.660Z,0
2017-03-22T04:07:19.744Z,0
2017-03-22T04:08:27.829Z,0
2017-03-22T04:09:35.921Z,0
2017-03-22T04:10:44.003Z,0
2017-03-22T04:11:52.087Z,0
2017-03-22T04:13:00.176Z,0
2017-03-22T04:14:08.266Z,0
2017-03-22T04:15:16.353Z,0
2017-03-22T04:16:24.439Z,0
2017-03-22T04:17:32.525Z,0
2017-03-22T04:18:40.616Z,0
2017-03-22T04:19:48.703Z,0
2017-03-22T04:20:56.785Z,0
2017-03-22T04:22:04.874Z,0
2017-03-22T04:23:12.960Z,0
2017-03-22T04:24:21.045Z,0
2017-03-22T04:25:29.129Z,0
2017-03-22T04:26:37.216Z,0
2017-03-22T04:27:45.306Z,0
2017-03-22T04:28:53.395Z,0
2017-03-22T04:30:01.482Z,0
2017-03-22T04:31:09.659Z,0
2017-03-22T04:32:17.652Z,0
2017-03-22T04:33:25.744Z,0
2017-03-22T04:34:33.829Z,0
2017-03-22T04:35:41.910Z,0
2017-03-22T04:36:49.995Z,0
2017-03-22T04:37:58.087Z,0
2017-03-22T04:39:06.173Z,0
2017-03-22T04:40:14.255Z,0
2017-03-22T04:41:22.345Z,0
2017-03-22T04:42:30.429Z,0
2017-03-22T04:43:38.514Z,0
2017-03-22T04:44:46.596Z,0
2017-03-22T04:45:54.685Z,0
2017-03-22T04:47:02.771Z,0
2017-03-22T04:48:10.854Z,0
2017-03-22T04:49:18.943Z,0
2017-03-22T04:50:27.028Z,0
2017-03-22T04:51:35.116Z,0
2017-03-22T04:52:43.200Z,0
2017-03-22T04:53:51.295Z,0
2017-03-22T04:54:59.379Z,0
2017-03-22T04:56:07.467Z,0
2017-03-22T04:57:15.557Z,0
2017-03-22T04:58:23.658Z,0
2017-03-22T04:59:31.740Z,0
2017-03-22T05:00:39.825Z,0
2017-03-22T05:01:47.910Z,0
2017-03-22T05:02:55.996Z,0
2017-03-22T05:04:04.079Z,0
2017-03-22T05:05:12.166Z,0
2017-03-22T05:06:20.253Z,0
2017-03-22T05:07:28.336Z,0
2017-03-22T05:08:36.425Z,0
2017-03-22T05:09:44.509Z,0
2017-03-22T05:10:52.591Z,0
2017-03-22T05:12:00.675Z,0
2017-03-22T05:13:08.764Z,0
2017-03-22T05:14:16.850Z,0
2017-03-22T05:15:24.932Z,0
2017-03-22T05:16:33.226Z,0
2017-03-22T05:17:41.195Z,0
2017-03-22T05:18:49.204Z,0
2017-03-22T05:19:57.280Z,0
2017-03-22T05:21:05.370Z,0
2017-03-22T05:22:13.459Z,0
2017-03-22T05:23:21.543Z,0
2017-03-22T05:24:29.633Z,0
2017-03-22T05:25:37.718Z,0
2017-03-22T05:26:45.802Z,0
2017-03-22T05:27:53.886Z,0
2017-03-22T05:29:01.972Z,0
2017-03-22T05:30:10.058Z,0
2017-03-22T05:31:18.823Z,0
2017-03-22T05:32:27.135Z,0
2017-03-22T05:33:36.865Z,0
2017-03-22T05:34:42.497Z,0
2017-03-22T05:35:50.482Z,0
2017-03-22T05:36:58.570Z,0
2017-03-22T05:38:06.656Z,0
2017-03-22T05:39:14.738Z,0
2017-03-22T05:40:22.831Z,0
2017-03-22T05:41:30.912Z,0
2017-03-22T05:42:39.122Z,0
2017-03-22T05:43:47.083Z,0
2017-03-22T05:44:55.171Z,0
2017-03-22T05:46:03.299Z,0
2017-03-22T05:47:11.336Z,0
2017-03-22T05:48:19.429Z,0
2017-03-22T05:49:27.515Z,0
2017-03-22T05:50:35.602Z,4
2017-03-22T05:51:43.727Z,4
2017-03-22T05:52:51.773Z,0
2017-03-22T05:54:00.141Z,0
2017-03-22T05:55:07.945Z,0
2017-03-22T05:56:16.495Z,0
2017-03-22T05:57:24.119Z,0
2017-03-22T05:58:32.202Z,0
2017-03-22T05:59:40.287Z,4
2017-03-22T06:00:48.638Z,4
2017-03-22T06:01:56.461Z,0
2017-03-22T06:03:04.579Z,0
2017-03-22T06:04:12.640Z,0
2017-03-22T06:05:20.719Z,0
2017-03-22T06:06:28.804Z,0
2017-03-22T06:07:37.021Z,0
2017-03-22T06:08:45.117Z,4
2017-03-22T06:09:53.152Z,0
2017-03-22T06:11:01.171Z,0
2017-03-22T06:12:09.234Z,4
2017-03-22T06:13:17.319Z,4
2017-03-22T06:14:25.402Z,4
2017-03-22T06:15:33.490Z,4
2017-03-22T06:16:41.578Z,0
2017-03-22T06:17:49.657Z,4
2017-03-22T06:18:57.740Z,4
2017-03-22T06:20:05.827Z,4
2017-03-22T06:21:13.912Z,4
2017-03-22T06:22:21.998Z,4
2017-03-22T06:23:30.086Z,4
2017-03-22T06:24:38.169Z,8
2017-03-22T06:25:46.255Z,4
2017-03-22T06:26:54.336Z,4
2017-03-22T06:28:02.423Z,4
2017-03-22T06:29:10.507Z,8
2017-03-22T06:30:18.593Z,8
2017-03-22T06:31:26.678Z,8
2017-03-22T06:32:34.946Z,12
2017-03-22T06:33:42.845Z,8
2017-03-22T06:34:50.930Z,12
2017-03-22T06:35:59.033Z,12
2017-03-22T06:37:07.105Z,16
2017-03-22T06:38:15.184Z,16
2017-03-22T06:39:23.278Z,16
2017-03-22T06:40:31.415Z,12
2017-03-22T06:41:39.456Z,12
2017-03-22T06:42:47.545Z,12
2017-03-22T06:43:55.634Z,12
2017-03-22T06:45:03.718Z,12
2017-03-22T06:46:11.798Z,12
2017-03-22T06:47:19.887Z,12
2017-03-22T06:48:27.973Z,12
2017-03-22T06:49:36.056Z,12
2017-03-22T06:50:44.138Z,12
2017-03-22T06:51:52.239Z,12
2017-03-22T06:53:00.325Z,12
2017-03-22T06:54:08.403Z,12
2017-03-22T06:55:16.491Z,12
2017-03-22T06:56:24.577Z,16
2017-03-22T06:57:32.667Z,16
2017-03-22T06:58:40.741Z,16
2017-03-22T06:59:48.864Z,16
2017-03-22T07:00:56.913Z,16
2017-03-22T07:02:04.995Z,16
2017-03-22T07:03:13.084Z,16
2017-03-22T07:04:21.168Z,16
2017-03-22T07:05:29.258Z,12
2017-03-22T07:06:37.369Z,12
2017-03-22T07:07:45.427Z,12
2017-03-22T07:08:53.514Z,12
2017-03-22T07:10:01.595Z,12
2017-03-22T07:11:09.683Z,12
2017-03-22T07:12:17.768Z,12
2017-03-22T07:13:25.850Z,16
2017-03-22T07:14:33.939Z,16
2017-03-22T07:15:42.022Z,20
2017-03-22T07:16:50.108Z,24
2017-03-22T07:17:58.189Z,24
2017-03-22T07:19:06.283Z,20
2017-03-22T07:20:14.364Z,24
2017-03-22T07:21:22.447Z,20
2017-03-22T07:22:30.537Z,20
2017-03-22T07:23:38.622Z,24
2017-03-22T07:24:46.706Z,24
2017-03-22T07:25:54.792Z,24
2017-03-22T07:27:02.881Z,28
2017-03-22T07:28:10.967Z,24
2017-03-22T07:29:19.049Z,28
2017-03-22T07:30:27.133Z,24
2017-03-22T07:31:35.218Z,28
2017-03-22T07:32:43.299Z,28
2017-03-22T07:33:51.382Z,24
2017-03-22T07:34:59.475Z,20
2017-03-22T07:36:07.559Z,24
2017-03-22T07:37:15.646Z,20
2017-03-22T07:38:23.736Z,20
2017-03-22T07:39:31.818Z,16
2017-03-22T07:40:39.906Z,16
2017-03-22T07:41:47.988Z,20
2017-03-22T07:42:56.077Z,20
2017-03-22T07:44:04.164Z,20
2017-03-22T07:45:12.247Z,24
2017-03-22T07:46:20.333Z,32
2017-03-22T07:47:28.419Z,36
2017-03-22T07:48:36.500Z,36
2017-03-22T07:49:44.590Z,36
2017-03-22T07:50:52.679Z,28
2017-03-22T07:52:00.763Z,32
2017-03-22T07:53:08.848Z,36
2017-03-22T07:54:16.939Z,40
2017-03-22T07:55:25.019Z,44
2017-03-22T07:56:33.105Z,48
2017-03-22T07:57:41.192Z,52
2017-03-22T07:58:49.280Z,52
2017-03-22T07:59:57.360Z,48
2017-03-22T08:01:05.445Z,48
2017-03-22T08:02:13.531Z,44
2017-03-22T08:03:21.623Z,48
2017-03-22T08:04:29.713Z,44
2017-03-22T08:05:37.807Z,40
2017-03-22T08:06:45.887Z,36
2017-03-22T08:07:53.976Z,40
2017-03-22T08:09:02.057Z,28
2017-03-22T08:10:10.147Z,24
2017-03-22T08:11:18.229Z,24
2017-03-22T08:12:26.310Z,24
2017-03-22T08:13:34.401Z,28
2017-03-22T08:14:42.490Z,28
2017-03-22T08:15:50.575Z,32
2017-03-22T08:16:58.659Z,36
2017-03-22T08:18:06.747Z,32
2017-03-22T08:19:14.833Z,36
2017-03-22T08:20:22.912Z,32
2017-03-22T08:21:31.000Z,28
2017-03-22T08:22:39.092Z,28
2017-03-22T08:23:47.173Z,24
2017-03-22T08:24:55.262Z,24
2017-03-22T08:26:03.347Z,24
2017-03-22T08:27:11.432Z,20
2017-03-22T08:28:19.515Z,28
2017-03-22T08:29:27.599Z,28
2017-03-22T08:30:35.685Z,24
2017-03-22T08:31:43.769Z,24
2017-03-22T08:32:51.850Z,24
2017-03-22T08:33:59.938Z,24
2017-03-22T08:35:08.019Z,20
2017-03-22T08:36:16.106Z,20
2017-03-22T08:37:24.192Z,24
2017-03-22T08:38:32.275Z,20
2017-03-22T08:39:40.356Z,28
2017-03-22T08:40:48.440Z,28
2017-03-22T08:41:56.527Z,28
2017-03-22T08:43:04.613Z,32
2017-03-22T08:44:12.697Z,28
2017-03-22T08:45:20.788Z,32
2017-03-22T08:46:28.879Z,32
2017-03-22T08:47:36.956Z,32
2017-03-22T08:48:45.037Z,28
2017-03-22T08:49:53.126Z,28
2017-03-22T08:51:01.209Z,20
2017-03-22T08:52:09.288Z,20
2017-03-22T08:53:17.374Z,16
2017-03-22T08:54:25.473Z,16
2017-03-22T08:55:33.551Z,20
2017-03-22T08:56:41.630Z,20
2017-03-22T08:57:49.717Z,16
2017-03-22T08:58:57.798Z,20
2017-03-22T09:00:05.882Z,20
2017-03-22T09:01:13.969Z,24
2017-03-22T09:02:22.053Z,32
2017-03-22T09:03:30.137Z,32
2017-03-22T09:04:38.220Z,24
2017-03-22T09:05:46.309Z,28
2017-03-22T09:06:54.393Z,24
2017-03-22T09:08:02.472Z,24
2017-03-22T09:09:10.561Z,32
2017-03-22T09:10:18.648Z,36
2017-03-22T09:11:26.731Z,36
2017-03-22T09:12:34.818Z,36
2017-03-22T09:13:42.900Z,32
2017-03-22T09:14:50.989Z,28
2017-03-22T09:15:59.078Z,28
2017-03-22T09:17:07.169Z,28
2017-03-22T09:18:15.259Z,28
2017-03-22T09:19:23.339Z,28
2017-03-22T09:20:31.426Z,32
2017-03-22T09:21:39.509Z,28
2017-03-22T09:22:47.591Z,24
2017-03-22T09:23:55.681Z,24
2017-03-22T09:25:03.761Z,28
2017-03-22T09:26:11.903Z,24
2017-03-22T09:27:19.931Z,24
2017-03-22T09:28:28.019Z,24
2017-03-22T09:29:36.102Z,24
2017-03-22T09:30:44.185Z,24
2017-03-22T09:31:52.267Z,24
2017-03-22T09:33:00.353Z,24
2017-03-22T09:34:08.465Z,24
2017-03-22T09:35:16.519Z,24
2017-03-22T09:36:24.606Z,24
2017-03-22T09:37:32.692Z,24
2017-03-22T09:38:40.777Z,24
2017-03-22T09:39:48.856Z,24
2017-03-22T09:40:56.951Z,24
2017-03-22T09:42:05.039Z,24
2017-03-22T09:43:13.127Z,24
2017-03-22T09:44:21.204Z,28
2017-03-22T09:45:29.288Z,32
2017-03-22T09:46:37.370Z,28
2017-03-22T09:47:45.455Z,32
2017-03-22T09:48:53.542Z,28
2017-03-22T09:50:01.629Z,24
2017-03-22T09:51:09.709Z,24
2017-03-22T09:52:17.798Z,24
2017-03-22T09:53:25.878Z,28
2017-03-22T09:54:33.964Z,28
2017-03-22T09:55:42.042Z,24
2017-03-22T09:56:50.131Z,28
2017-03-22T09:57:58.213Z,28
2017-03-22T09:59:06.298Z,40
2017-03-22T10:00:14.385Z,44
2017-03-22T10:01:22.471Z,40
2017-03-22T10:02:30.553Z,36
2017-03-22T10:03:38.639Z,40
2017-03-22T10:04:46.721Z,32
2017-03-22T10:05:54.805Z,20
2017-03-22T10:07:02.885Z,16
2017-03-22T10:08:10.974Z,28
2017-03-22T10:09:19.064Z,28
2017-03-22T10:10:27.152Z,28
2017-03-22T10:11:35.231Z,28
2017-03-22T10:12:43.317Z,24
2017-03-22T10:13:51.400Z,20
2017-03-22T10:14:59.481Z,28
2017-03-22T10:16:07.565Z,32
2017-03-22T10:17:15.649Z,28
2017-03-22T10:18:23.737Z,28
2017-03-22T10:19:31.821Z,28
2017-03-22T10:20:39.905Z,24
2017-03-22T10:21:47.987Z,20
2017-03-22T10:22:56.073Z,20
2017-03-22T10:24:04.158Z,16
2017-03-22T10:25:12.247Z,20
2017-03-22T10:26:20.329Z,20
2017-03-22T10:27:28.415Z,20
2017-03-22T10:28:36.498Z,20
2017-03-22T10:29:44.585Z,32
2017-03-22T10:30:52.671Z,36
2017-03-22T10:32:00.752Z,24
2017-03-22T10:33:08.838Z,20
2017-03-22T10:34:16.924Z,20
2017-03-22T10:35:25.007Z,16
2017-03-22T10:36:33.092Z,16
2017-03-22T10:37:41.178Z,20
2017-03-22T10:38:49.258Z,20
2017-03-22T10:39:57.350Z,16
2017-03-22T10:41:05.433Z,20
2017-03-22T10:42:13.517Z,16
2017-03-22T10:43:21.603Z,16
2017-03-22T10:44:29.686Z,16
2017-03-22T10:45:37.770Z,16
2017-03-22T10:46:45.851Z,16
2017-03-22T10:47:53.938Z,16
2017-03-22T10:49:02.023Z,12
2017-03-22T10:50:10.101Z,16
2017-03-22T10:51:18.186Z,16
2017-03-22T10:52:26.271Z,16
2017-03-22T10:53:34.355Z,12
2017-03-22T10:54:42.435Z,12
2017-03-22T10:55:50.530Z,16
2017-03-22T10:56:58.613Z,16
2017-03-22T10:58:06.699Z,16
2017-03-22T10:59:14.794Z,16
2017-03-22T11:00:22.876Z,16
2017-03-22T11:01:30.959Z,20
2017-03-22T11:02:39.043Z,20
2017-03-22T11:03:47.132Z,20
2017-03-22T11:04:55.216Z,20
2017-03-22T11:06:03.299Z,20
2017-03-22T11:07:11.384Z,20
2017-03-22T11:08:19.472Z,20
2017-03-22T11:09:27.551Z,20
2017-03-22T11:10:35.638Z,24
2017-03-22T11:11:43.724Z,20
2017-03-22T11:12:51.809Z,28
2017-03-22T11:13:59.888Z,24
2017-03-22T11:15:07.977Z,24
2017-03-22T11:16:16.066Z,24
2017-03-22T11:17:24.148Z,24
2017-03-22T11:18:32.232Z,24
2017-03-22T11:19:40.322Z,20
2017-03-22T11:20:48.401Z,16
2017-03-22T11:21:56.482Z,24
2017-03-22T11:23:04.574Z,28
2017-03-22T11:24:12.658Z,32
2017-03-22T11:25:20.738Z,36
2017-03-22T11:26:28.828Z,44
2017-03-22T11:27:36.908Z,48
2017-03-22T11:28:44.991Z,44
2017-03-22T11:29:53.070Z,44
2017-03-22T11:31:01.163Z,44
2017-03-22T11:32:09.251Z,40
2017-03-22T11:33:17.327Z,40
2017-03-22T11:34:25.413Z,32
2017-03-22T11:35:33.502Z,32
2017-03-22T11:36:41.586Z,32
2017-03-22T11:37:49.668Z,36
2017-03-22T11:38:57.760Z,36
2017-03-22T11:40:05.839Z,32
2017-03-22T11:41:13.922Z,36
2017-03-22T11:42:22.006Z,36
2017-03-22T11:43:30.117Z,36
2017-03-22T11:44:38.171Z,36
2017-03-22T11:45:46.266Z,32
2017-03-22T11:46:54.345Z,32
2017-03-22T11:48:02.436Z,32
2017-03-22T11:49:10.511Z,32
2017-03-22T11:50:18.597Z,32
2017-03-22T11:51:26.683Z,36
2017-03-22T11:52:34.761Z,40
2017-03-22T11:53:42.850Z,40
2017-03-22T11:54:50.936Z,44
2017-03-22T11:55:59.024Z,40
2017-03-22T11:57:07.104Z,48
2017-03-22T11:58:15.192Z,48
2017-03-22T11:59:23.291Z,52
2017-03-22T12:00:31.356Z,56
2017-03-22T12:01:39.443Z,48
2017-03-22T12:02:47.537Z,44
2017-03-22T12:03:55.615Z,40
2017-03-22T12:05:03.698Z,36
2017-03-22T12:06:11.781Z,40
2017-03-22T12:07:19.878Z,36
2017-03-22T12:08:27.953Z,40
2017-03-22T12:09:36.040Z,36
2017-03-22T12:10:44.125Z,36
2017-03-22T12:11:52.203Z,40
2017-03-22T12:13:00.289Z,40
2017-03-22T12:14:08.407Z,36
2017-03-22T12:15:16.461Z,32
2017-03-22T12:16:24.543Z,32
2017-03-22T12:17:32.627Z,32
2017-03-22T12:18:40.712Z,32
2017-03-22T12:19:48.794Z,36
2017-03-22T12:20:56.879Z,36
2017-03-22T12:22:04.963Z,32
2017-03-22T12:23:13.043Z,28
2017-03-22T12:24:21.123Z,28
2017-03-22T12:25:29.215Z,28
2017-03-22T12:26:37.300Z,28
2017-03-22T12:27:45.380Z,32
2017-03-22T12:28:53.459Z,28
2017-03-22T12:30:01.546Z,28
2017-03-22T12:31:09.628Z,28
2017-03-22T12:32:17.713Z,32
2017-03-22T12:33:25.802Z,28
2017-03-22T12:34:33.884Z,24
2017-03-22T12:35:41.968Z,28
2017-03-22T12:36:50.052Z,28
2017-03-22T12:37:58.142Z,32
2017-03-22T12:39:06.232Z,28
2017-03-22T12:40:14.320Z,28
2017-03-22T12:41:22.403Z,24
2017-03-22T12:42:30.490Z,24
2017-03-22T12:43:38.571Z,24
2017-03-22T12:44:46.659Z,24
2017-03-22T12:45:54.839Z,24
2017-03-22T12:47:02.825Z,24
2017-03-22T12:48:10.911Z,24
2017-03-22T12:49:18.997Z,20
2017-03-22T12:50:27.086Z,20
2017-03-22T12:51:35.170Z,20
2017-03-22T12:52:43.249Z,20
2017-03-22T12:53:51.333Z,20
2017-03-22T12:54:59.422Z,20
2017-03-22T12:56:07.503Z,20
2017-03-22T12:57:15.591Z,20
2017-03-22T12:58:23.676Z,16
2017-03-22T12:59:31.814Z,16
2017-03-22T13:00:39.843Z,16
2017-03-22T13:01:47.929Z,16
2017-03-22T13:02:56.089Z,20
2017-03-22T13:04:04.098Z,20
2017-03-22T13:05:12.185Z,24
2017-03-22T13:06:20.267Z,24
2017-03-22T13:07:28.350Z,24
2017-03-22T13:08:36.434Z,24
2017-03-22T13:09:44.522Z,20
2017-03-22T13:10:52.606Z,20
2017-03-22T13:12:00.688Z,24
2017-03-22T13:13:08.786Z,28
2017-03-22T13:14:16.860Z,24
2017-03-22T13:15:24.949Z,20
2017-03-22T13:16:33.036Z,20
2017-03-22T13:17:41.117Z,20
2017-03-22T13:18:49.199Z,24
2017-03-22T13:19:57.356Z,24
2017-03-22T13:21:05.365Z,20
2017-03-22T13:22:13.449Z,20
2017-03-22T13:23:21.529Z,20
2017-03-22T13:24:29.618Z,28
2017-03-22T13:25:37.705Z,28
2017-03-22T13:26:45.790Z,28
2017-03-22T13:27:53.867Z,24
2017-03-22T13:29:01.959Z,28
2017-03-22T13:30:10.038Z,28
2017-03-22T13:31:18.119Z,24
2017-03-22T13:32:26.207Z,24
2017-03-22T13:33:34.293Z,24
2017-03-22T13:34:42.371Z,24
2017-03-22T13:35:50.459Z,28
2017-03-22T13:36:58.544Z,32
2017-03-22T13:38:06.629Z,32
2017-03-22T13:39:14.710Z,28
2017-03-22T13:40:22.800Z,28
2017-03-22T13:41:30.884Z,28
2017-03-22T13:42:38.969Z,28
2017-03-22T13:43:47.047Z,28
2017-03-22T13:44:55.137Z,28
2017-03-22T13:46:03.218Z,28
2017-03-22T13:47:11.303Z,28
2017-03-22T13:48:19.390Z,28
2017-03-22T13:49:27.474Z,28
2017-03-22T13:50:35.554Z,28
2017-03-22T13:51:43.638Z,28
2017-03-22T13:52:51.720Z,28
2017-03-22T13:53:59.808Z,24
2017-03-22T13:55:07.890Z,24
2017-03-22T13:56:15.979Z,28
2017-03-22T13:57:24.065Z,28
2017-03-22T13:58:32.144Z,28
2017-03-22T13:59:40.228Z,28
2017-03-22T14:00:48.317Z,24
2017-03-22T14:01:56.397Z,24
2017-03-22T14:03:04.478Z,24
2017-03-22T14:04:12.567Z,24
2017-03-22T14:05:20.651Z,24
2017-03-22T14:06:28.733Z,28
2017-03-22T14:07:36.813Z,28
2017-03-22T14:08:44.901Z,28
2017-03-22T14:09:52.979Z,28
2017-03-22T14:11:01.065Z,28
2017-03-22T14:12:09.151Z,28
2017-03-22T14:13:17.236Z,28
2017-03-22T14:14:25.316Z,32
2017-03-22T14:15:33.406Z,32
2017-03-22T14:16:41.497Z,32
2017-03-22T14:17:49.585Z,24
2017-03-22T14:18:57.664Z,24
2017-03-22T14:20:05.774Z,20
2017-03-22T14:21:13.836Z,24
2017-03-22T14:22:21.917Z,24
2017-03-22T14:23:30.005Z,28
2017-03-22T14:24:38.090Z,32
2017-03-22T14:25:46.172Z,32
2017-03-22T14:26:54.257Z,28
2017-03-22T14:28:02.345Z,28
2017-03-22T14:29:10.426Z,28
2017-03-22T14:30:18.507Z,24
2017-03-22T14:31:26.590Z,24
2017-03-22T14:32:34.674Z,28
2017-03-22T14:33:42.753Z,28
2017-03-22T14:34:50.837Z,28
2017-03-22T14:35:58.926Z,28
2017-03-22T14:37:07.008Z,28
2017-03-22T14:38:15.086Z,28
2017-03-22T14:39:23.175Z,24
2017-03-22T14:40:31.262Z,24
2017-03-22T14:41:39.345Z,20
2017-03-22T14:42:47.425Z,20
2017-03-22T14:43:55.511Z,20
2017-03-22T14:45:03.592Z,12
2017-03-22T14:46:11.675Z,16
2017-03-22T14:47:19.763Z,16
2017-03-22T14:48:27.845Z,16
2017-03-22T14:49:35.929Z,16
2017-03-22T14:50:44.009Z,16
2017-03-22T14:51:52.098Z,12
2017-03-22T14:53:00.181Z,12
2017-03-22T14:54:08.259Z,12
2017-03-22T14:55:16.346Z,16
2017-03-22T14:56:24.431Z,16
2017-03-22T14:57:32.514Z,16
2017-03-22T14:58:40.598Z,16
2017-03-22T14:59:48.683Z,16
2017-03-22T15:00:56.767Z,16
2017-03-22T15:02:04.913Z,16
2017-03-22T15:03:12.932Z,16
2017-03-22T15:04:21.018Z,12
2017-03-22T15:05:29.098Z,12
2017-03-22T15:06:37.180Z,8
2017-03-22T15:07:45.268Z,12
2017-03-22T15:08:53.346Z,12
2017-03-22T15:10:01.428Z,12
2017-03-22T15:11:09.519Z,16
2017-03-22T15:12:17.597Z,16
2017-03-22T15:13:25.682Z,12
2017-03-22T15:14:33.773Z,12
2017-03-22T15:15:41.847Z,12
2017-03-22T15:16:49.931Z,16
2017-03-22T15:17:58.016Z,12
2017-03-22T15:19:06.103Z,12
2017-03-22T15:20:14.191Z,12
2017-03-22T15:21:22.265Z,16
2017-03-22T15:22:30.354Z,12
2017-03-22T15:23:38.435Z,16
2017-03-22T15:24:46.518Z,16
2017-03-22T15:25:54.599Z,16
2017-03-22T15:27:02.685Z,16
2017-03-22T15:28:10.825Z,16
2017-03-22T15:29:18.852Z,20
2017-03-22T15:30:26.937Z,20
2017-03-22T15:31:35.024Z,28
2017-03-22T15:32:43.115Z,24
2017-03-22T15:33:51.189Z,20
2017-03-22T15:34:59.276Z,20
2017-03-22T15:36:07.359Z,16
2017-03-22T15:37:15.468Z,20
2017-03-22T15:38:23.529Z,20
2017-03-22T15:39:31.613Z,24
2017-03-22T15:40:39.699Z,16
2017-03-22T15:41:47.778Z,16
2017-03-22T15:42:55.864Z,16
2017-03-22T15:44:03.948Z,16
2017-03-22T15:45:12.027Z,16
2017-03-22T15:46:20.117Z,16
2017-03-22T15:47:28.203Z,16
2017-03-22T15:48:36.278Z,16
2017-03-22T15:49:44.362Z,16
2017-03-22T15:50:52.450Z,16
2017-03-22T15:52:00.534Z,16
2017-03-22T15:53:08.617Z,12
2017-03-22T15:54:16.701Z,12
2017-03-22T15:55:24.783Z,12
2017-03-22T15:56:32.867Z,12
2017-03-22T15:57:40.947Z,12
2017-03-22T15:58:49.035Z,12
2017-03-22T15:59:57.127Z,12
2017-03-22T16:01:05.216Z,12
2017-03-22T16:02:13.305Z,12
2017-03-22T16:03:21.392Z,12
2017-03-22T16:04:29.486Z,12
2017-03-22T16:05:37.588Z,16
2017-03-22T16:06:45.643Z,12
2017-03-22T16:07:53.726Z,16
2017-03-22T16:09:01.804Z,16
2017-03-22T16:10:09.892Z,16
2017-03-22T16:11:17.978Z,16
2017-03-22T16:12:26.057Z,16
2017-03-22T16:13:34.144Z,16
2017-03-22T16:14:42.229Z,20
2017-03-22T16:15:50.312Z,16
2017-03-22T16:16:58.447Z,16
2017-03-22T16:18:06.493Z,12
2017-03-22T16:19:14.582Z,12
2017-03-22T16:20:22.662Z,8
2017-03-22T16:21:30.752Z,8
2017-03-22T16:22:38.928Z,12
2017-03-22T16:23:46.920Z,8
2017-03-22T16:24:55.008Z,8
2017-03-22T16:26:03.094Z,8